createdAt,value
2018-06-15T00:00:10.208Z,99.90
2018-06-15T00:09:36.783Z,99.90
2018-06-15T00:12:12.958Z,99.90
2018-06-15T00:14:47.749Z,99.90
2018-06-15T00:17:25.749Z,99.90
2018-06-15T00:22:39.224Z,99.90
2018-06-15T00:25:14.193Z,99.90
2018-06-15T00:27:48.995Z,99.90
2018-06-15T00:30:21.382Z,99.90
2018-06-15T00:33:00.184Z,99.90
2018-06-15T00:35:35.262Z,99.90
2018-06-15T00:38:13.755Z,99.90
2018-06-15T00:40:50.127Z,99.90
2018-06-15T00:43:26.499Z,99.90
2018-06-15T00:46:10.676Z,99.90
2018-06-15T00:48:48.921Z,99.90
2018-06-15T00:51:32.621Z,99.90
2018-06-15T00:54:08.283Z,99.90
2018-06-15T00:58:47.569Z,99.90
2018-06-15T01:01:22.458Z,99.90
2018-06-15T01:04:04.582Z,99.90
2018-06-15T01:06:44.554Z,99.90
2018-06-15T01:09:53.407Z,99.90
2018-06-15T01:12:35.957Z,99.90
2018-06-15T01:15:11.662Z,99.90
2018-06-15T01:17:55.968Z,99.90
2018-06-15T02:01:49.691Z,99.90
2018-06-15T02:04:29.857Z,99.90
2018-06-15T02:09:59.387Z,99.90
2018-06-15T02:12:38.662Z,99.90
2018-06-15T02:15:32.163Z,99.90
2018-06-15T02:18:10.944Z,99.90
2018-06-15T02:27:50.680Z,99.90
2018-06-15T02:30:25.206Z,99.90
2018-06-15T02:32:58.474Z,99.90
2018-06-15T02:35:30.848Z,99.90
2018-06-15T02:38:03.770Z,99.90
2018-06-15T02:43:32.664Z,99.90
2018-06-15T02:46:05.744Z,99.90
2018-06-15T02:48:42.756Z,99.90
2018-06-15T02:51:15.002Z,99.90
2018-06-15T02:53:47.218Z,99.90
2018-06-15T02:56:19.594Z,99.90
2018-06-15T02:58:51.612Z,99.90
2018-06-15T03:01:23.754Z,99.90
2018-06-15T03:03:57.318Z,99.90
2018-06-15T03:06:29.657Z,99.90
2018-06-15T03:09:02.247Z,99.90
2018-06-15T03:11:34.346Z,99.90
2018-06-15T03:14:06.475Z,99.90
2018-06-15T03:22:22.803Z,99.90
2018-06-15T03:28:04.354Z,99.90
2018-06-15T03:30:36.390Z,99.90
2018-06-15T03:33:08.578Z,99.90
2018-06-15T03:35:40.562Z,99.90
2018-06-15T03:38:12.671Z,99.90
2018-06-15T03:40:45.450Z,99.90
2018-06-15T03:43:18.493Z,99.90
2018-06-15T03:45:51.120Z,99.90
2018-06-15T03:48:23.991Z,99.90
2018-06-15T03:50:56.416Z,99.90
2018-06-15T03:53:28.436Z,99.90
2018-06-15T03:56:01.503Z,99.90
2018-06-15T03:58:33.630Z,99.90
2018-06-15T04:01:05.784Z,99.90
2018-06-15T04:03:39.725Z,99.90
2018-06-15T04:06:12.121Z,99.90
2018-06-15T04:08:44.382Z,99.90
2018-06-15T04:11:33.357Z,99.90
2018-06-15T04:14:06.070Z,99.90
2018-06-15T04:16:38.118Z,99.90
2018-06-15T04:19:10.496Z,99.90
2018-06-15T04:21:42.664Z,99.90
2018-06-15T04:24:15.249Z,99.90
2018-06-15T04:26:47.409Z,99.90
2018-06-15T04:29:19.486Z,99.90
2018-06-15T04:31:51.728Z,99.90
2018-06-15T04:34:24.574Z,99.90
2018-06-15T04:36:56.642Z,99.90
2018-06-15T04:39:28.847Z,99.90
2018-06-15T04:42:02.985Z,99.90
2018-06-15T04:44:35.165Z,99.90
2018-06-15T04:47:07.567Z,99.90
2018-06-15T04:49:40.212Z,99.90
2018-06-15T04:52:12.672Z,99.90
2018-06-15T04:54:44.910Z,99.90
2018-06-15T04:57:17.088Z,99.90
2018-06-15T04:59:49.297Z,99.90
2018-06-15T05:02:22.899Z,99.90
2018-06-15T05:04:55.122Z,99.90
2018-06-15T05:07:27.225Z,99.90
2018-06-15T05:09:59.457Z,99.90
2018-06-15T05:12:35.488Z,99.90
2018-06-15T05:15:07.809Z,99.90
2018-06-15T05:17:39.946Z,99.90
2018-06-15T05:20:12.922Z,99.90
2018-06-15T05:22:50.892Z,99.90
2018-06-15T05:25:24.641Z,99.90
2018-06-15T05:27:56.905Z,99.90
2018-06-15T05:30:29.140Z,99.90
2018-06-15T05:33:09.484Z,99.90
2018-06-15T05:35:42.020Z,99.90
2018-06-15T05:38:14.200Z,99.90
2018-06-15T05:40:46.392Z,99.90
2018-06-15T05:43:18.702Z,99.90
2018-06-15T05:45:50.944Z,99.90
2018-06-15T05:48:22.975Z,99.90
2018-06-15T05:50:55.217Z,99.90
2018-06-15T05:53:27.584Z,99.90
2018-06-15T05:55:59.761Z,99.90
2018-06-15T05:58:31.919Z,99.90
2018-06-15T06:01:04.128Z,99.90
2018-06-15T06:03:37.141Z,99.90
2018-06-15T06:06:09.830Z,99.90
2018-06-15T06:08:42.386Z,99.90
2018-06-15T06:11:15.898Z,99.90
2018-06-15T06:13:48.182Z,99.90
2018-06-15T06:16:20.352Z,99.90
2018-06-15T06:18:52.526Z,99.90
2018-06-15T06:21:24.689Z,99.90
2018-06-15T06:23:57.121Z,99.90
2018-06-15T06:26:29.872Z,99.90
2018-06-15T06:29:02.164Z,99.90
2018-06-15T06:31:34.376Z,99.90
2018-06-15T06:34:09.117Z,99.90
2018-06-15T06:36:41.342Z,99.90
2018-06-15T06:39:14.927Z,99.90
2018-06-15T06:41:47.270Z,99.90
2018-06-15T06:44:19.310Z,99.90
2018-06-15T06:46:51.539Z,99.90
2018-06-15T06:49:23.779Z,99.90
2018-06-15T06:51:56.073Z,99.90
2018-06-15T06:54:32.050Z,99.90
2018-06-15T06:57:05.006Z,99.90
2018-06-15T06:59:38.034Z,99.90
2018-06-15T07:02:10.811Z,99.90
2018-06-15T07:04:43.017Z,99.90
2018-06-15T07:07:15.368Z,99.90
2018-06-15T07:09:47.543Z,99.90
2018-06-15T07:12:19.976Z,99.90
2018-06-15T07:15:00.696Z,99.90
2018-06-15T07:17:32.888Z,99.90
2018-06-15T07:20:05.090Z,99.90
2018-06-15T07:22:37.201Z,99.90
2018-06-15T07:25:09.296Z,99.90
2018-06-15T07:27:41.806Z,99.90
2018-06-15T07:30:14.188Z,99.90
2018-06-15T07:32:46.521Z,99.90
2018-06-15T07:35:19.896Z,99.90
2018-06-15T07:37:52.118Z,99.90
2018-06-15T07:40:24.201Z,99.90
2018-06-15T07:42:56.717Z,99.90
2018-06-15T07:45:30.932Z,99.90
2018-06-15T07:48:03.277Z,99.90
2018-06-15T07:50:35.643Z,99.90
2018-06-15T07:53:08.224Z,99.90
2018-06-15T07:55:40.696Z,99.90
2018-06-15T07:58:13.061Z,99.90
2018-06-15T08:00:45.492Z,99.90
2018-06-15T08:03:18.011Z,99.90
2018-06-15T08:05:50.365Z,99.90
2018-06-15T08:08:22.811Z,99.90
2018-06-15T08:10:55.396Z,99.90
2018-06-15T08:13:27.909Z,99.90
2018-06-15T08:16:03.465Z,99.90
2018-06-15T08:18:35.916Z,99.90
2018-06-15T08:21:09.132Z,99.90
2018-06-15T08:23:41.423Z,99.90
2018-06-15T08:26:13.729Z,99.90
2018-06-15T08:28:46.598Z,99.90
2018-06-15T08:31:19.013Z,99.90
2018-06-15T08:33:51.401Z,99.90
2018-06-15T08:36:23.882Z,99.90
2018-06-15T08:38:56.339Z,99.90
2018-06-15T08:44:06.020Z,99.90
2018-06-15T08:46:38.713Z,99.90
2018-06-15T08:49:11.158Z,99.90
2018-06-15T08:51:43.408Z,99.90
2018-06-15T08:54:15.815Z,99.90
2018-06-15T08:56:48.972Z,99.90
2018-06-15T08:59:21.886Z,99.90
2018-06-15T09:01:54.201Z,99.90
2018-06-15T09:04:26.780Z,99.90
2018-06-15T09:06:59.628Z,99.90
2018-06-15T09:09:32.968Z,99.90
2018-06-15T09:12:05.367Z,99.90
2018-06-15T09:14:38.592Z,99.90
2018-06-15T09:17:14.851Z,99.90
2018-06-15T09:19:47.358Z,99.90
2018-06-15T09:22:19.934Z,99.90
2018-06-15T09:24:52.518Z,99.90
2018-06-15T09:27:25.390Z,99.90
2018-06-15T09:29:58.049Z,99.90
2018-06-15T09:32:31.203Z,99.90
2018-06-15T09:35:03.565Z,99.90
2018-06-15T09:37:36.807Z,99.90
2018-06-15T09:40:10.699Z,99.90
2018-06-15T09:42:43.967Z,99.90
2018-06-15T09:45:16.848Z,99.90
2018-06-15T09:47:50.512Z,99.90
2018-06-15T09:50:23.061Z,99.90
2018-06-15T09:52:57.400Z,99.90
2018-06-15T09:55:33.103Z,99.90
2018-06-15T09:58:27.509Z,99.90
2018-06-15T10:01:04.431Z,99.90
2018-06-15T10:03:36.832Z,99.90
2018-06-15T10:06:11.699Z,99.90
2018-06-15T10:08:44.847Z,99.90
2018-06-15T10:11:19.641Z,99.90
2018-06-15T10:13:52.467Z,99.90
2018-06-15T10:16:26.456Z,99.90
2018-06-15T10:19:08.020Z,99.90
2018-06-15T10:24:50.899Z,99.90
2018-06-15T10:27:23.900Z,99.90
2018-06-15T10:30:00.817Z,99.90
2018-06-15T10:32:34.353Z,99.90
2018-06-15T10:35:09.253Z,99.90
2018-06-15T10:40:28.600Z,99.90
2018-06-15T10:43:08.031Z,99.90
2018-06-15T10:45:47.381Z,99.90
2018-06-15T10:48:30.637Z,99.90
2018-06-15T10:51:04.239Z,99.90
2018-06-15T10:57:15.207Z,99.90
2018-06-15T10:59:50.657Z,99.90
2018-06-15T11:02:23.895Z,99.90
2018-06-15T11:08:14.752Z,99.90
2018-06-15T11:10:48.498Z,99.90
2018-06-15T11:13:23.869Z,99.90
2018-06-15T11:15:56.560Z,99.90
2018-06-15T11:18:46.755Z,99.90
2018-06-15T11:21:27.087Z,99.90
2018-06-15T11:24:29.737Z,99.90
2018-06-15T11:27:10.809Z,99.90
2018-06-15T11:32:56.557Z,99.90
2018-06-15T11:35:31.183Z,99.90
2018-06-15T11:56:55.552Z,99.90
2018-06-15T11:59:32.081Z,99.90
2018-06-15T12:02:05.873Z,99.90
2018-06-15T12:05:02.746Z,99.90
2018-06-15T12:11:38.516Z,99.90
2018-06-15T12:14:13.402Z,99.90
2018-06-15T12:36:37.745Z,99.90
2018-06-15T13:32:48.881Z,99.90
2018-06-15T13:35:28.066Z,99.90
2018-06-15T13:43:57.524Z,99.90
2018-06-15T13:46:39.741Z,99.90
2018-06-15T13:51:59.963Z,99.90
2018-06-15T13:54:33.178Z,99.90
2018-06-15T13:59:59.340Z,99.90
2018-06-15T14:02:33.679Z,99.90
2018-06-15T14:05:15.756Z,99.90
2018-06-15T14:07:56.978Z,99.90
2018-06-15T14:10:33.537Z,99.90
2018-06-15T14:13:05.756Z,99.90
2018-06-15T14:18:31.510Z,99.90
2018-06-15T14:21:04.220Z,99.90
2018-06-15T14:23:40.886Z,99.90
2018-06-15T14:26:19.195Z,99.90
2018-06-15T14:28:53.403Z,99.90
2018-06-15T14:37:24.280Z,99.90
2018-06-15T14:39:57.595Z,99.90
2018-06-15T14:42:34.464Z,99.90
2018-06-15T14:45:07.438Z,99.90
2018-06-15T14:47:47.451Z,99.90
2018-06-15T14:50:19.652Z,99.90
2018-06-15T14:55:47.098Z,99.90
2018-06-15T14:58:25.144Z,99.90
2018-06-15T15:01:02.836Z,99.90
2018-06-15T15:04:51.492Z,99.90
2018-06-15T15:07:37.179Z,99.90
2018-06-15T15:10:12.586Z,99.90
2018-06-15T15:15:31.030Z,99.90
2018-06-15T15:18:09.778Z,99.90
2018-06-15T15:23:22.184Z,99.90
2018-06-15T15:25:55.639Z,99.90
2018-06-15T15:28:30.883Z,99.90
2018-06-15T15:31:05.148Z,99.90
2018-06-15T15:33:57.039Z,99.90
2018-06-15T15:36:39.703Z,99.90
2018-06-15T15:39:58.341Z,99.90
2018-06-15T15:42:45.745Z,99.90
2018-06-15T15:45:41.503Z,99.90
2018-06-15T15:52:38.436Z,99.90
2018-06-15T16:20:05.924Z,99.90
2018-06-15T16:25:01.024Z,99.90
2018-06-15T16:30:34.563Z,99.90
2018-06-15T16:33:34.703Z,99.90
2018-06-15T16:44:58.386Z,99.90
2018-06-15T16:50:48.178Z,99.90
2018-06-15T16:53:26.150Z,99.90
2018-06-15T16:56:00.097Z,99.90
2018-06-15T16:59:13.192Z,99.50
2018-06-15T17:01:50.310Z,99.00
2018-06-15T17:04:31.252Z,98.60
2018-06-15T17:07:12.139Z,95.10
2018-06-15T17:09:48.811Z,95.90
2018-06-15T17:12:32.718Z,93.20
2018-06-15T17:15:11.040Z,92.00
2018-06-15T17:18:16.944Z,90.40
2018-06-15T17:20:51.353Z,90.80
2018-06-15T17:23:29.244Z,93.20
2018-06-15T17:26:01.777Z,95.50
2018-06-15T17:28:49.190Z,95.60
2018-06-15T17:33:06.134Z,92.10
2018-06-15T17:35:54.021Z,93.60
2018-06-15T17:39:25.618Z,95.30
2018-06-15T17:53:14.946Z,93.80
2018-06-15T17:55:51.781Z,91.50
2018-06-15T17:58:31.619Z,88.40
2018-06-15T18:01:10.436Z,79.50
2018-06-15T18:03:45.681Z,78.50
2018-06-15T18:06:24.952Z,74.50
2018-06-15T18:11:57.641Z,61.10
2018-06-15T18:14:41.591Z,60.70
2018-06-15T18:17:17.164Z,58.60
2018-06-15T18:19:51.767Z,60.00
2018-06-15T18:22:24.507Z,57.60
2018-06-15T18:25:00.634Z,60.80
2018-06-15T18:27:38.264Z,68.30
2018-06-15T18:30:13.681Z,67.50
2018-06-15T18:32:47.163Z,68.30
2018-06-15T18:35:21.971Z,65.70
2018-06-15T18:37:57.769Z,74.60
2018-06-15T18:40:40.628Z,72.90
2018-06-15T18:43:21.794Z,76.20
2018-06-15T18:46:10.226Z,71.30
2018-06-15T18:48:57.559Z,69.00
2018-06-15T18:51:30.766Z,70.90
2018-06-15T18:54:03.866Z,76.30
2018-06-15T18:56:37.199Z,80.50
2018-06-15T18:59:09.926Z,83.40
2018-06-15T19:01:43.609Z,73.70
2018-06-15T19:04:23.782Z,77.00
2018-06-15T19:06:57.122Z,82.30
2018-06-15T19:12:23.531Z,91.00
2018-06-15T19:14:56.868Z,91.80
2018-06-15T19:17:38.372Z,91.80
2018-06-15T19:20:12.852Z,94.90
2018-06-15T19:22:45.336Z,97.70
2018-06-15T19:25:18.637Z,99.80
2018-06-15T19:27:55.620Z,99.90
2018-06-15T19:30:30.885Z,99.30
2018-06-15T19:33:08.636Z,99.90
2018-06-15T19:35:41.659Z,99.20
2018-06-15T19:40:52.675Z,98.80
2018-06-15T19:43:28.544Z,98.30
2018-06-15T19:46:08.404Z,96.60
2018-06-15T19:48:48.549Z,99.60
2018-06-15T19:51:24.430Z,99.90
2018-06-15T19:54:03.019Z,99.90
2018-06-15T19:56:41.757Z,99.90
2018-06-15T19:59:16.546Z,99.90
2018-06-15T20:01:57.473Z,99.90
2018-06-15T20:04:31.728Z,99.90
2018-06-15T20:07:05.775Z,98.40
2018-06-15T20:09:52.108Z,97.50
2018-06-15T20:12:30.036Z,96.80
2018-06-15T20:15:06.838Z,99.90
2018-06-15T20:17:43.369Z,99.90
2018-06-15T20:20:18.387Z,99.90
2018-06-15T20:22:52.680Z,99.90
2018-06-15T20:25:37.948Z,99.90
2018-06-15T20:28:13.995Z,99.80
2018-06-15T20:30:51.007Z,99.90
2018-06-15T20:33:26.435Z,99.90
2018-06-15T20:37:04.637Z,99.90
2018-06-15T20:39:36.993Z,99.90
2018-06-15T20:42:15.760Z,95.50
2018-06-15T20:45:00.109Z,94.20
2018-06-15T20:47:34.503Z,92.90
2018-06-15T20:50:06.799Z,88.60
2018-06-15T20:55:23.258Z,90.00
2018-06-15T20:57:57.351Z,92.00
2018-06-15T21:00:34.851Z,92.90
2018-06-15T21:03:07.694Z,93.90
2018-06-15T21:05:41.147Z,93.30
2018-06-15T21:08:23.760Z,94.60
2018-06-15T21:14:07.742Z,94.20
2018-06-15T21:16:40.713Z,95.70
2018-06-15T21:19:20.540Z,97.20
2018-06-15T21:21:54.319Z,97.90
2018-06-15T21:24:34.975Z,97.70
2018-06-15T21:27:14.750Z,97.00
2018-06-15T21:48:39.768Z,94.00
2018-06-15T21:51:37.849Z,96.40
2018-06-15T21:57:52.516Z,99.90
2018-06-15T22:40:34.177Z,99.90
2018-06-15T22:43:33.180Z,99.90
2018-06-15T22:46:22.290Z,99.90
2018-06-15T22:49:11.374Z,99.90
2018-06-15T22:55:42.397Z,99.90
2018-06-15T22:58:32.891Z,99.90
2018-06-15T23:04:01.897Z,99.90
2018-06-15T23:17:19.911Z,99.90
2018-06-15T23:47:37.638Z,99.90
2018-06-15T23:50:19.969Z,99.90
2018-06-15T23:59:06.838Z,99.90
